Time;durP1;ratioP1;P1;durP2;ratioP2;P2;SDS_P1;SDS_P2;PMS_P1;PMS_P2;Temp;Humidity;BMP_temperature;BMP_pressure;BME280_temperature;BME280_humidity;BME280_pressure;Samples;Min_cycle;Max_cycle;Signal;HPM_P1;HPM_P2
2023/02/12 00:01:27;;;;;;;18.83;11.30;;;;;;;8.27;100.00;103717.63;5110978;28;20402;-65
2023/02/12 00:03:55;;;;;;;17.98;10.80;;;;;;;8.27;100.00;103720.34;5105550;28;20043;-66
2023/02/12 00:06:23;;;;;;;15.60;10.70;;;;;;;8.27;100.00;103717.63;5071377;28;20052;-67
2023/02/12 00:08:52;;;;;;;18.45;9.68;;;;;;;8.27;100.00;103725.78;5142777;27;20055;-62
2023/02/12 00:11:23;;;;;;;14.43;10.60;;;;;;;8.27;100.00;103717.63;5120368;27;20051;-69
2023/02/12 00:13:51;;;;;;;14.70;9.50;;;;;;;8.27;100.00;103720.34;5108788;28;20519;-69
2023/02/12 00:16:22;;;;;;;14.35;9.90;;;;;;;8.26;100.00;103711.38;5105026;28;20073;-69
2023/02/12 00:18:52;;;;;;;14.90;10.00;;;;;;;8.27;100.00;103717.63;5116833;27;20083;-68
2023/02/12 00:21:20;;;;;;;14.05;9.90;;;;;;;8.25;100.00;103715.13;5105383;27;20558;-69
2023/02/12 00:23:48;;;;;;;14.45;9.35;;;;;;;8.25;100.00;103723.28;5118282;27;20047;-69
2023/02/12 00:26:18;;;;;;;15.95;9.80;;;;;;;8.26;100.00;103719.50;5120560;27;20047;-70
2023/02/12 00:28:49;;;;;;;16.65;10.52;;;;;;;8.27;100.00;103721.22;5119653;27;20071;-69
2023/02/12 00:31:19;;;;;;;15.50;9.55;;;;;;;8.27;100.00;103721.22;5104214;27;20510;-72
2023/02/12 00:33:48;;;;;;;17.42;10.07;;;;;;;8.27;100.00;103731.22;5105605;27;20127;-70
2023/02/12 00:36:19;;;;;;;15.73;10.45;;;;;;;8.26;100.00;103740.41;5116432;27;20047;-71
2023/02/12 00:38:48;;;;;;;15.73;10.48;;;;;;;8.26;100.00;103735.81;5104128;27;20123;-69
2023/02/12 00:41:16;;;;;;;14.63;10.35;;;;;;;8.26;100.00;103730.38;5103062;28;20058;-70
2023/02/12 00:43:44;;;;;;;15.77;9.93;;;;;;;8.26;100.00;103730.38;5117028;27;20051;-70
2023/02/12 00:46:11;;;;;;;20.42;11.65;;;;;;;8.25;100.00;103733.25;5098975;28;20043;-70
2023/02/12 00:48:39;;;;;;;15.85;10.13;;;;;;;8.25;100.00;103725.13;5117065;27;20092;-70
2023/02/12 00:51:07;;;;;;;16.75;10.80;;;;;;;8.24;100.00;103724.28;5111630;27;20044;-69
2023/02/12 00:53:35;;;;;;;17.38;10.90;;;;;;;8.24;100.00;103712.56;5107496;27;20047;-71
2023/02/12 00:56:03;;;;;;;14.77;10.57;;;;;;;8.24;100.00;103715.28;5116557;28;20054;-70
2023/02/12 00:58:31;;;;;;;17.15;10.00;;;;;;;8.25;100.00;103719.69;5115833;27;20119;-70
2023/02/12 01:00:59;;;;;;;17.08;10.43;;;;;;;8.25;100.00;103716.97;5114342;28;20108;-70
2023/02/12 01:03:26;;;;;;;15.63;10.68;;;;;;;8.24;100.00;103715.28;5121215;27;20516;-69
2023/02/12 01:05:55;;;;;;;16.17;9.85;;;;;;;8.24;100.00;103715.28;5098992;27;20044;-70
2023/02/12 01:08:24;;;;;;;16.63;9.75;;;;;;;8.23;100.00;103717.16;5107863;27;20044;-69
2023/02/12 01:10:56;;;;;;;15.95;9.60;;;;;;;8.24;100.00;103718.00;5115400;27;20497;-68
2023/02/12 01:13:25;;;;;;;14.95;9.80;;;;;;;8.23;100.00;103716.34;5116069;27;20051;-69
2023/02/12 01:16:07;;;;;;;14.40;10.00;;;;;;;8.24;100.00;103715.28;5107703;28;20403;-69
2023/02/12 01:18:36;;;;;;;14.18;10.18;;;;;;;8.24;100.00;103721.56;5117096;28;20047;-69
2023/02/12 01:21:26;;;;;;;14.30;9.90;;;;;;;8.24;100.00;103715.28;5081415;28;20048;-69
2023/02/12 01:23:55;;;;;;;13.00;10.18;;;;;;;8.24;100.00;103721.56;5072971;28;20051;-69
2023/02/12 01:26:24;;;;;;;15.25;9.60;;;;;;;8.25;100.00;103715.13;5098205;28;20487;-70
2023/02/12 01:28:54;;;;;;;17.17;10.73;;;;;;;8.27;100.00;103720.34;5090973;28;20044;-69
2023/02/12 01:31:28;;;;;;;15.68;10.07;;;;;;;8.26;100.00;103719.50;5111429;27;20044;-69
2023/02/12 01:33:57;;;;;;;17.08;10.27;;;;;;;8.26;100.00;103719.50;5080871;28;20044;-69
2023/02/12 01:36:26;;;;;;;15.77;10.02;;;;;;;8.26;100.00;103714.09;5111216;27;20070;-68
2023/02/12 01:38:56;;;;;;;14.43;10.27;;;;;;;8.26;100.00;103714.09;5103401;28;20153;-69
2023/02/12 01:41:28;;;;;;;17.00;9.75;;;;;;;8.26;100.00;103718.69;5107995;27;20047;-69
2023/02/12 01:44:05;;;;;;;16.27;9.80;;;;;;;8.25;100.00;103715.13;5095649;28;20056;-69
2023/02/12 01:46:33;;;;;;;15.43;9.68;;;;;;;8.24;100.00;103721.56;5095627;27;20052;-69
2023/02/12 01:49:02;;;;;;;18.08;10.00;;;;;;;8.24;100.00;103712.56;5095691;28;20069;-69
2023/02/12 01:51:30;;;;;;;14.68;9.40;;;;;;;8.24;99.93;103720.72;5107464;27;20047;-70
2023/02/12 01:54:01;;;;;;;15.68;10.63;;;;;;;8.23;100.00;103714.44;5114782;27;20050;-70
2023/02/12 01:56:30;;;;;;;17.50;10.07;;;;;;;8.21;100.00;103713.78;5093912;28;20089;-69
2023/02/12 01:58:57;;;;;;;16.13;10.65;;;;;;;8.19;99.41;103715.00;5114338;28;20491;-68
2023/02/12 02:01:27;;;;;;;13.68;9.93;;;;;;;8.18;100.00;103713.28;5097596;28;20044;-70
2023/02/12 02:03:59;;;;;;;15.15;9.40;;;;;;;8.17;100.00;103719.75;5107428;27;20050;-69
2023/02/12 02:06:38;;;;;;;16.50;10.05;;;;;;;8.16;100.00;103716.19;5116058;28;20092;-70
2023/02/12 02:09:06;;;;;;;13.13;9.57;;;;;;;8.15;100.00;103714.50;5107398;28;20055;-69
2023/02/12 02:14:32;;;;;;;15.25;10.25;;;;;;;8.13;100.00;103712.97;5102751;28;20119;-69
2023/02/12 02:17:22;;;;;;;18.50;9.95;;;;;;;8.11;100.00;103711.31;5097719;28;20058;-70
2023/02/12 02:20:21;;;;;;;16.27;10.07;;;;;;;8.11;100.00;103711.31;5098884;28;20052;-68
2023/02/12 02:23:18;;;;;;;14.75;9.65;;;;;;;8.12;100.00;103709.44;5106330;27;20540;-68
2023/02/12 02:25:48;;;;;;;14.15;9.75;;;;;;;8.14;100.00;103703.81;5097608;27;20047;-69
2023/02/12 02:28:26;;;;;;;13.80;10.05;;;;;;;8.13;100.00;103703.00;5100506;27;20036;-69
2023/02/12 02:31:11;;;;;;;15.05;10.15;;;;;;;8.13;100.00;103703.00;5111025;27;20105;-70
2023/02/12 02:33:54;;;;;;;15.35;9.90;;;;;;;8.15;100.00;103705.50;5103857;27;20096;-69
2023/02/12 02:36:40;;;;;;;15.13;10.40;;;;;;;8.15;100.00;103708.22;5103365;27;20051;-69
2023/02/12 02:39:34;;;;;;;15.18;9.68;;;;;;;8.15;100.00;103697.34;5112606;28;20040;-69
2023/02/12 02:42:02;;;;;;;;;;;;;;;8.15;100.00;103695.47;5107779;27;20101;-69
2023/02/12 02:44:53;;;;;;;15.55;10.52;;;;;;;8.13;100.00;103693.97;5097444;27;19927;-69
2023/02/12 02:47:25;;;;;;;14.13;10.00;;;;;;;8.11;100.00;103695.00;5099865;28;20039;-69
2023/02/12 02:50:01;;;;;;;13.65;10.50;;;;;;;8.08;100.00;103700.81;5078146;28;20126;-68
2023/02/12 02:52:39;;;;;;;15.98;10.32;;;;;;;8.07;100.00;103696.38;5093109;28;20074;-69
2023/02/12 02:55:09;;;;;;;18.10;10.85;;;;;;;8.07;100.00;103703.69;5084373;28;20052;-68
2023/02/12 02:57:51;;;;;;;15.10;10.32;;;;;;;8.08;100.00;103700.81;5112657;27;20039;-69
2023/02/12 03:00:34;;;;;;;13.68;9.75;;;;;;;8.09;100.00;103697.06;5113744;28;20102;-68
2023/02/12 03:03:13;;;;;;;14.50;10.63;;;;;;;8.11;100.00;103699.59;5091366;28;20062;-69
2023/02/12 03:05:47;;;;;;;13.88;9.75;;;;;;;8.11;100.00;103695.00;5104732;27;20051;-68
2023/02/12 03:08:22;;;;;;;16.42;9.63;;;;;;;8.14;100.00;103692.97;5081265;28;20048;-68
2023/02/12 03:11:10;;;;;;;14.77;10.23;;;;;;;8.15;100.00;103695.47;5111080;28;20049;-69
2023/02/12 03:13:58;;;;;;;15.27;9.95;;;;;;;8.16;99.90;103697.19;5102176;28;20040;-68
2023/02/12 03:16:32;;;;;;;13.63;9.07;;;;;;;8.17;100.00;103698.03;5104717;27;20054;-69
2023/02/12 03:19:22;;;;;;;14.68;9.70;;;;;;;8.18;100.00;103694.28;5112145;28;20047;-70
2023/02/12 03:22:10;;;;;;;13.70;9.13;;;;;;;8.19;100.00;103694.09;5096512;27;20467;-69
2023/02/12 03:24:46;;;;;;;13.80;9.05;;;;;;;8.19;99.99;103695.97;5080066;28;20036;-68
2023/02/12 03:27:17;;;;;;;16.05;10.05;;;;;;;8.19;99.35;103690.53;5112509;27;20039;-70
2023/02/12 03:29:45;;;;;;;15.23;10.18;;;;;;;8.18;100.00;103686.13;5102460;28;20052;-69
2023/02/12 03:32:42;;;;;;;12.88;9.45;;;;;;;8.16;99.25;103688.19;5106806;28;20039;-69
2023/02/12 03:35:22;;;;;;;11.80;8.93;;;;;;;8.16;99.99;103680.06;5092737;28;20492;-69
2023/02/12 03:38:08;;;;;;;13.40;9.63;;;;;;;8.17;99.77;103687.16;5114430;28;20052;-70
2023/02/12 03:40:47;;;;;;;14.13;9.73;;;;;;;8.16;99.58;103682.78;5125854;28;20058;-69
2023/02/12 03:43:24;;;;;;;15.82;9.48;;;;;;;8.14;99.46;103690.25;5085873;28;20052;-69
2023/02/12 03:46:02;;;;;;;13.93;9.30;;;;;;;8.13;98.81;103680.41;5109477;28;20052;-66
2023/02/12 03:49:06;;;;;;;12.10;8.95;;;;;;;8.13;99.43;103685.81;5108417;28;20066;-66
2023/02/12 03:51:39;;;;;;;13.10;8.35;;;;;;;8.14;98.99;103690.25;5084778;28;20052;-66
2023/02/12 03:54:08;;;;;;;12.05;8.60;;;;;;;8.14;99.09;103684.81;5113882;28;20050;-68
2023/02/12 03:56:51;;;;;;;12.45;8.90;;;;;;;8.15;98.69;103678.34;5081406;28;20124;-70
2023/02/12 03:59:19;;;;;;;14.43;8.88;;;;;;;8.14;98.92;103680.22;5109921;28;20056;-69
2023/02/12 04:01:48;;;;;;;14.02;9.27;;;;;;;8.13;97.92;103686.69;5109665;28;20076;-69
2023/02/12 04:04:17;;;;;;;12.35;8.85;;;;;;;8.13;98.06;103691.25;5099199;28;20059;-70
2023/02/12 04:06:46;;;;;;;12.57;9.48;;;;;;;8.11;98.64;103684.16;5112485;28;20043;-69
2023/02/12 04:09:14;;;;;;;12.80;9.60;;;;;;;8.12;98.29;103687.69;5114971;28;20430;-69
2023/02/12 04:11:48;;;;;;;13.07;9.13;;;;;;;8.12;98.54;103690.41;5112037;28;20048;-69
2023/02/12 04:14:30;;;;;;;13.95;9.93;;;;;;;8.13;98.59;103700.28;5113385;28;20541;-69
2023/02/12 04:17:03;;;;;;;14.15;10.02;;;;;;;8.13;98.76;103702.13;5089262;28;20043;-69
2023/02/12 04:19:40;;;;;;;15.07;9.98;;;;;;;8.15;98.79;103705.50;5094941;28;20070;-68
2023/02/12 04:22:10;;;;;;;14.55;9.85;;;;;;;8.15;97.97;103705.50;5108483;28;20131;-70
2023/02/12 04:25:08;;;;;;;14.23;10.18;;;;;;;8.15;98.63;103705.50;5093611;28;20044;-68
2023/02/12 04:27:45;;;;;;;15.88;10.70;;;;;;;8.15;98.81;103711.78;5096833;27;20043;-70
2023/02/12 04:30:47;;;;;;;14.60;10.38;;;;;;;8.15;98.89;103716.38;5108680;27;20079;-69
2023/02/12 04:33:19;;;;;;;15.32;11.32;;;;;;;8.15;98.02;103714.50;5026679;28;20419;-69
2023/02/12 04:36:04;;;;;;;15.95;10.98;;;;;;;8.14;98.00;103720.97;5097461;28;20549;-70
2023/02/12 04:38:38;;;;;;;13.25;10.38;;;;;;;8.11;97.99;103716.75;5118227;28;20195;-68
2023/02/12 04:41:06;;;;;;;15.52;10.68;;;;;;;8.11;97.94;103716.75;5111490;28;20048;-69
2023/02/12 04:43:36;;;;;;;16.45;10.73;;;;;;;8.11;98.56;103719.47;5089901;28;20078;-69
2023/02/12 04:46:05;;;;;;;15.90;10.68;;;;;;;8.11;98.68;103714.03;5097664;28;20032;-69
2023/02/12 04:48:34;;;;;;;14.57;10.98;;;;;;;8.10;98.15;103714.19;5095912;28;20087;-70
2023/02/12 04:51:02;;;;;;;15.90;10.32;;;;;;;8.09;98.80;103710.63;5104370;27;20052;-70
2023/02/12 04:53:29;;;;;;;14.75;10.95;;;;;;;8.09;98.70;103710.63;5106491;27;20554;-69
2023/02/12 04:55:57;;;;;;;16.50;10.70;;;;;;;8.09;98.67;103707.91;5104957;28;20409;-68
2023/02/12 04:58:25;;;;;;;13.02;10.63;;;;;;;8.08;98.33;103722.53;5103543;27;20071;-69
2023/02/12 05:00:52;;;;;;;16.08;11.15;;;;;;;8.09;98.59;103710.63;5100510;28;20125;-70
2023/02/12 05:03:20;;;;;;;14.25;10.65;;;;;;;8.10;98.29;103715.06;5114994;27;20044;-70
2023/02/12 05:05:48;;;;;;;15.50;10.82;;;;;;;8.11;99.18;103718.63;5113660;28;20043;-70
2023/02/12 05:08:15;;;;;;;14.82;11.13;;;;;;;8.12;98.27;103723.00;5094733;28;20092;-70
2023/02/12 05:10:43;;;;;;;14.70;11.90;;;;;;;8.10;97.92;103723.22;5114293;27;20047;-70
2023/02/12 05:13:10;;;;;;;17.42;13.23;;;;;;;8.07;98.46;103723.53;5114045;27;20054;-70
2023/02/12 05:15:39;;;;;;;15.75;11.70;;;;;;;8.05;98.75;103724.75;5103021;27;20048;-70
2023/02/12 05:18:06;;;;;;;17.58;11.60;;;;;;;8.04;98.09;103728.50;5112828;28;20047;-70
2023/02/12 05:20:34;;;;;;;18.17;11.55;;;;;;;8.01;98.51;103723.41;5111241;27;20376;-69
2023/02/12 05:23:01;;;;;;;18.45;11.38;;;;;;;7.99;98.73;103733.63;5107816;27;20038;-70
2023/02/12 05:25:30;;;;;;;16.83;11.25;;;;;;;7.98;98.54;103732.75;5114912;27;20046;-70
2023/02/12 05:27:58;;;;;;;19.92;11.60;;;;;;;8.00;98.68;103738.03;5094467;28;20039;-71
2023/02/12 05:30:26;;;;;;;16.17;11.75;;;;;;;8.00;99.12;103725.28;5102961;27;20059;-70
2023/02/12 05:32:54;;;;;;;15.18;11.57;;;;;;;7.99;99.44;103729.03;5114587;27;20070;-69
2023/02/12 05:35:22;;;;;;;14.32;11.65;;;;;;;8.01;99.18;103736.97;5115757;28;20100;-71
2023/02/12 05:37:49;;;;;;;15.75;11.40;;;;;;;8.01;99.75;103732.44;5080300;28;20045;-70
2023/02/12 05:40:17;;;;;;;15.80;11.48;;;;;;;8.03;99.98;103734.94;5116438;27;20114;-69
2023/02/12 05:42:46;;;;;;;15.00;11.85;;;;;;;8.04;99.03;103736.66;5095479;28;20496;-70
2023/02/12 05:45:15;;;;;;;16.48;11.07;;;;;;;8.03;98.83;103732.22;5102794;27;20047;-69
2023/02/12 05:47:43;;;;;;;16.40;11.13;;;;;;;8.00;99.22;103736.16;5111102;27;20051;-67
2023/02/12 05:50:10;;;;;;;14.77;10.77;;;;;;;8.01;99.17;103737.84;5093977;27;20048;-70
2023/02/12 05:52:38;;;;;;;16.25;11.77;;;;;;;8.01;99.72;103743.28;5113715;28;20047;-70
2023/02/12 05:55:06;;;;;;;16.88;11.82;;;;;;;8.01;99.14;103739.69;5113980;28;20054;-68
2023/02/12 05:57:34;;;;;;;15.43;11.38;;;;;;;8.01;100.00;103746.00;5105503;27;20055;-69
2023/02/12 06:00:03;;;;;;;14.43;10.88;;;;;;;8.03;100.00;103738.53;5115680;28;20047;-69
2023/02/12 06:02:38;;;;;;;16.85;12.05;;;;;;;8.04;99.35;103736.66;5116261;27;20052;-69
2023/02/12 06:05:06;;;;;;;17.45;12.35;;;;;;;8.01;99.33;103743.28;5113970;28;20046;-69
2023/02/12 06:07:34;;;;;;;15.70;11.95;;;;;;;8.00;99.55;103746.16;5105470;27;20062;-70
2023/02/12 06:10:01;;;;;;;14.57;11.40;;;;;;;7.99;99.86;103755.34;5101453;27;20044;-68
2023/02/12 06:12:29;;;;;;;14.23;11.27;;;;;;;7.99;99.83;103755.34;5115277;27;20043;-69
2023/02/12 06:14:57;;;;;;;16.58;12.00;;;;;;;7.98;100.00;103743.63;5127996;27;20571;-68
2023/02/12 06:17:25;;;;;;;15.75;11.93;;;;;;;8.00;99.71;103746.16;5110355;27;20071;-69
2023/02/12 06:19:52;;;;;;;18.38;11.88;;;;;;;7.99;99.85;103745.34;5095374;27;20403;-69
2023/02/12 06:22:20;;;;;;;15.73;11.95;;;;;;;8.00;100.00;103751.59;5104584;27;20112;-69
2023/02/12 06:24:47;;;;;;;15.45;12.25;;;;;;;7.99;100.00;103750.75;5091707;28;20043;-67
2023/02/12 06:27:15;;;;;;;17.30;12.68;;;;;;;7.99;100.00;103749.91;5110709;27;20043;-69
2023/02/12 06:29:43;;;;;;;17.48;12.57;;;;;;;7.99;100.00;103763.50;5093457;28;20105;-67
2023/02/12 06:32:12;;;;;;;17.10;11.88;;;;;;;7.98;100.00;103754.47;5112186;27;20039;-66
2023/02/12 06:34:40;;;;;;;16.67;12.10;;;;;;;7.96;100.00;103756.56;5100204;28;20052;-69
2023/02/12 06:37:08;;;;;;;15.63;11.93;;;;;;;7.96;100.00;103759.28;5109171;28;20059;-67
2023/02/12 06:39:35;;;;;;;13.93;11.38;;;;;;;7.96;100.00;103756.56;5114225;27;20510;-68
2023/02/12 06:42:03;;;;;;;15.13;11.52;;;;;;;7.96;100.00;103756.56;5117916;27;20063;-66
2023/02/12 06:44:31;;;;;;;16.50;12.25;;;;;;;7.97;100.00;103751.97;5112907;28;20152;-68
2023/02/12 06:46:58;;;;;;;14.95;11.88;;;;;;;7.96;100.00;103756.56;5113194;27;20051;-67
2023/02/12 06:49:26;;;;;;;15.45;12.27;;;;;;;7.98;100.00;103759.91;5111573;27;20048;-66
2023/02/12 06:51:54;;;;;;;16.70;11.98;;;;;;;7.98;100.00;103765.34;5109797;28;20044;-67
2023/02/12 06:54:21;;;;;;;16.70;12.75;;;;;;;7.96;100.00;103762.00;5094709;28;20051;-65
2023/02/12 06:56:49;;;;;;;18.13;13.90;;;;;;;7.89;100.00;103761.00;5117050;27;20040;-68
2023/02/12 06:59:16;;;;;;;19.67;13.45;;;;;;;7.81;100.00;103764.59;5113537;27;20074;-65
2023/02/12 07:01:44;;;;;;;18.77;14.32;;;;;;;7.77;100.00;103771.41;5108473;28;20112;-66
2023/02/12 07:04:12;;;;;;;18.67;14.57;;;;;;;7.75;100.00;103773.44;5109813;28;20487;-66
2023/02/12 07:06:40;;;;;;;17.40;14.35;;;;;;;7.75;100.00;103773.44;5105781;28;20047;-65
2023/02/12 07:09:08;;;;;;;15.57;13.07;;;;;;;7.80;100.00;103778.34;5115398;27;20043;-64
2023/02/12 07:11:36;;;;;;;17.42;12.48;;;;;;;7.86;100.00;103780.34;5115493;27;20035;-65
2023/02/12 07:14:06;;;;;;;17.73;13.35;;;;;;;7.88;100.00;103773.72;5111797;28;20040;-68
2023/02/12 07:16:33;;;;;;;16.23;13.20;;;;;;;7.92;100.00;103776.09;5095975;28;20082;-65
2023/02/12 07:19:01;;;;;;;16.73;12.98;;;;;;;7.93;100.00;103777.78;5107667;28;20123;-67
2023/02/12 07:21:29;;;;;;;16.63;12.65;;;;;;;7.94;100.00;103774.88;5113512;27;20044;-65
2023/02/12 07:23:57;;;;;;;16.58;11.90;;;;;;;7.95;100.00;103784.72;5106913;28;20036;-65
2023/02/12 07:26:24;;;;;;;16.35;12.00;;;;;;;7.97;100.00;103781.84;5113072;28;20052;-66
2023/02/12 07:28:52;;;;;;;15.05;11.82;;;;;;;7.99;100.00;103783.34;5114823;28;20040;-68
2023/02/12 07:31:21;;;;;;;15.07;11.50;;;;;;;8.00;99.69;103785.03;5122405;28;20043;-65
2023/02/12 07:33:53;;;;;;;16.05;11.82;;;;;;;8.00;99.85;103785.03;5117911;28;20054;-65
2023/02/12 07:36:21;;;;;;;16.67;12.48;;;;;;;7.98;100.00;103787.06;5094824;28;20044;-63
2023/02/12 07:38:49;;;;;;;19.02;12.40;;;;;;;7.96;99.87;103793.69;5130172;28;20054;-66
2023/02/12 07:41:22;;;;;;;17.33;12.30;;;;;;;7.95;100.00;103795.56;5092435;28;20043;-64
2023/02/12 07:43:57;;;;;;;17.42;13.35;;;;;;;7.94;100.00;103793.91;5123987;28;20040;-65
2023/02/12 07:46:31;;;;;;;17.65;12.93;;;;;;;7.93;100.00;103788.63;5091648;28;20137;-67
2023/02/12 07:49:00;;;;;;;18.02;13.52;;;;;;;7.94;100.00;103796.59;5113883;28;20044;-66
2023/02/12 07:51:28;;;;;;;18.30;13.85;;;;;;;7.97;100.00;103798.13;5112183;28;20139;-66
2023/02/12 07:53:56;;;;;;;19.45;13.55;;;;;;;7.98;100.00;103799.81;5102857;28;20031;-65
2023/02/12 07:56:30;;;;;;;17.50;13.20;;;;;;;7.99;100.00;103802.34;5101577;28;20043;-66
2023/02/12 07:59:00;;;;;;;19.90;14.25;;;;;;;8.01;99.92;103796.72;5112178;28;20046;-66
2023/02/12 08:01:29;;;;;;;17.63;13.75;;;;;;;8.01;99.62;103789.44;5110093;27;20035;-65
2023/02/12 08:03:59;;;;;;;18.75;13.55;;;;;;;8.03;99.44;103800.97;5098578;28;20454;-64
2023/02/12 08:06:29;;;;;;;17.85;13.68;;;;;;;8.04;98.67;103802.66;5078920;28;20098;-68
2023/02/12 08:08:59;;;;;;;21.17;13.90;;;;;;;8.06;98.93;103800.63;5097763;28;20055;-67
2023/02/12 08:11:28;;;;;;;16.33;13.70;;;;;;;8.08;98.89;103804.00;5096547;28;20043;-67
2023/02/12 08:13:57;;;;;;;20.75;14.45;;;;;;;8.10;98.85;103801.97;5113221;27;20047;-69
2023/02/12 08:16:26;;;;;;;21.35;14.70;;;;;;;8.11;98.60;103813.66;5109971;27;20051;-68
2023/02/12 08:18:55;;;;;;;17.33;13.27;;;;;;;8.12;99.05;103809.91;5114102;27;20499;-67
2023/02/12 08:21:34;;;;;;;17.88;13.68;;;;;;;8.14;98.61;103815.19;5117306;27;20052;-67
2023/02/12 08:24:01;;;;;;;17.08;13.82;;;;;;;8.13;98.35;103819.78;5074648;27;20043;-66
2023/02/12 08:26:31;;;;;;;19.67;14.80;;;;;;;8.13;98.48;103818.91;5117395;28;20531;-66
2023/02/12 08:29:03;;;;;;;16.85;12.50;;;;;;;8.13;99.08;103816.19;5114212;28;20051;-67
2023/02/12 08:31:36;;;;;;;15.88;13.23;;;;;;;8.13;99.49;103817.06;5117313;28;20043;-67
2023/02/12 08:34:04;;;;;;;17.15;12.80;;;;;;;8.15;99.73;103822.28;5113705;28;20062;-68
2023/02/12 08:36:37;;;;;;;17.67;13.95;;;;;;;8.16;100.00;103827.56;5115618;27;20123;-68
2023/02/12 08:39:06;;;;;;;18.50;13.95;;;;;;;8.16;99.80;103829.44;5116263;28;20051;-68
2023/02/12 08:41:35;;;;;;;18.70;14.25;;;;;;;8.16;99.16;103832.16;5113318;28;20051;-66
2023/02/12 08:44:04;;;;;;;20.63;14.80;;;;;;;8.19;99.12;103834.50;5107030;28;20067;-63
2023/02/12 08:46:34;;;;;;;18.65;15.13;;;;;;;8.19;98.17;103838.06;5096355;28;20511;-63
2023/02/12 08:49:10;;;;;;;19.58;14.65;;;;;;;8.21;97.82;103846.03;5098068;28;20117;-63
2023/02/12 08:51:40;;;;;;;18.35;14.25;;;;;;;8.20;97.53;103841.59;5096474;28;20040;-63
2023/02/12 08:54:12;;;;;;;20.48;14.27;;;;;;;8.20;97.83;103838.88;5097549;28;20054;-63
2023/02/12 08:56:41;;;;;;;18.38;14.38;;;;;;;8.20;97.94;103837.03;5095473;28;20066;-64
2023/02/12 08:59:10;;;;;;;17.55;13.68;;;;;;;8.21;97.45;103843.31;5078573;28;20426;-63
2023/02/12 09:01:40;;;;;;;18.27;14.35;;;;;;;8.21;97.46;103840.59;5094879;28;20147;-64
2023/02/12 09:04:14;;;;;;;18.98;14.90;;;;;;;8.22;97.09;103845.00;5111351;28;20040;-62
2023/02/12 09:06:41;;;;;;;19.33;14.90;;;;;;;8.22;97.09;103842.28;5116752;28;20126;-63
2023/02/12 09:09:09;;;;;;;18.85;14.30;;;;;;;8.23;96.96;103847.53;5116576;28;20047;-63
2023/02/12 09:11:36;;;;;;;20.55;15.05;;;;;;;8.22;97.14;103851.28;5115165;28;20059;-62
2023/02/12 09:14:06;;;;;;;19.55;15.00;;;;;;;8.23;96.70;103850.25;5114197;28;20048;-62
2023/02/12 09:16:35;;;;;;;20.92;15.82;;;;;;;8.23;96.48;103849.44;5116433;28;20052;-64
2023/02/12 09:19:04;;;;;;;21.02;15.93;;;;;;;8.25;96.35;103844.63;5115172;28;20047;-63
2023/02/12 09:21:31;;;;;;;22.83;16.83;;;;;;;8.25;96.32;103850.06;5116583;28;20558;-64
2023/02/12 09:24:02;;;;;;;20.27;15.48;;;;;;;8.25;96.78;103855.50;5097232;28;20055;-63
2023/02/12 09:26:30;;;;;;;22.35;16.23;;;;;;;8.26;96.13;103852.63;5094600;28;20058;-62
2023/02/12 09:28:57;;;;;;;21.85;16.25;;;;;;;8.27;96.22;103850.75;5094537;28;20553;-64
2023/02/12 09:31:27;;;;;;;21.55;16.70;;;;;;;8.28;95.69;103858.72;5094338;28;20075;-63
2023/02/12 09:33:59;;;;;;;21.17;16.60;;;;;;;8.30;95.39;103858.56;5096197;28;20044;-63
2023/02/12 09:36:28;;;;;;;20.42;16.13;;;;;;;8.30;95.62;103858.56;5077806;28;20044;-63
2023/02/12 09:38:58;;;;;;;22.20;16.02;;;;;;;8.30;96.28;103856.69;5095786;28;20079;-63
2023/02/12 09:41:50;;;;;;;20.52;16.63;;;;;;;8.31;96.74;103861.06;5095366;28;20456;-63
2023/02/12 09:44:55;;;;;;;21.60;16.92;;;;;;;8.28;97.30;103852.44;5095164;28;20048;-62
2023/02/12 09:47:30;;;;;;;21.60;16.38;;;;;;;8.26;97.12;103849.91;5073586;28;20044;-64
2023/02/12 09:50:06;;;;;;;20.75;15.55;;;;;;;8.29;97.17;103854.13;5097053;28;20079;-64
2023/02/12 09:52:34;;;;;;;22.77;16.92;;;;;;;8.30;97.28;103850.41;5094645;28;20050;-63
2023/02/12 09:55:02;;;;;;;21.00;17.30;;;;;;;8.33;96.61;103850.03;5095235;28;20051;-63
2023/02/12 09:57:34;;;;;;;22.42;18.10;;;;;;;8.34;96.89;103862.59;5095357;28;20047;-62
2023/02/12 10:00:09;;;;;;;22.05;16.83;;;;;;;8.36;96.43;103871.41;5077811;28;20072;-64
2023/02/12 10:02:39;;;;;;;24.83;18.33;;;;;;;8.36;96.22;103863.25;5103457;28;20044;-63
2023/02/12 10:05:16;;;;;;;22.73;18.38;;;;;;;8.37;96.51;103862.25;5099496;28;20385;-62
2023/02/12 10:08:12;;;;;;;24.83;18.95;;;;;;;8.37;96.51;103864.09;5077103;28;20052;-63
2023/02/12 10:10:43;;;;;;;;;;;;;;;8.35;96.49;103864.28;5094465;28;20044;-63
2023/02/12 10:13:14;;;;;;;25.20;17.92;;;;;;;8.35;96.31;103869.72;5094927;28;19920;-64
2023/02/12 10:15:56;;;;;;;25.10;18.92;;;;;;;8.37;96.40;103866.81;5094064;28;20072;-64
2023/02/12 10:18:56;;;;;;;24.77;19.45;;;;;;;8.38;95.32;103863.94;5094873;28;20146;-65
2023/02/12 10:21:56;;;;;;;25.33;19.80;;;;;;;8.39;94.90;103852.03;5093417;28;20040;-64
2023/02/12 10:25:08;;;;;;;23.42;18.88;;;;;;;8.41;94.53;103858.16;5092900;28;20588;-63
2023/02/12 10:27:39;;;;;;;26.08;19.45;;;;;;;8.41;94.38;103855.44;4996481;28;20058;-63
2023/02/12 10:30:26;;;;;;;23.45;18.80;;;;;;;8.43;94.12;103858.84;4996332;28;20212;-64
2023/02/12 10:33:04;;;;;;;25.80;19.55;;;;;;;8.45;93.80;103854.06;5063025;28;20109;-63
2023/02/12 10:35:32;;;;;;;24.90;19.65;;;;;;;8.47;93.29;103851.19;5094498;28;20550;-64
2023/02/12 10:38:15;;;;;;;25.33;18.88;;;;;;;8.47;93.10;103849.31;5094685;28;20071;-64
2023/02/12 10:40:44;;;;;;;25.30;18.67;;;;;;;8.48;93.41;103848.28;5093412;28;20051;-63
2023/02/12 10:43:12;;;;;;;24.25;18.10;;;;;;;8.47;93.22;103852.03;5113046;28;20533;-65
2023/02/12 10:45:42;;;;;;;21.33;17.77;;;;;;;8.47;92.84;103852.03;5114561;28;20063;-63
2023/02/12 10:48:14;;;;;;;23.10;18.38;;;;;;;8.47;93.07;103846.59;5096573;28;20120;-64
2023/02/12 10:50:46;;;;;;;23.27;18.25;;;;;;;8.49;92.85;103844.53;5114725;28;20054;-63
2023/02/12 10:53:23;;;;;;;23.95;18.40;;;;;;;8.50;92.39;103851.66;5113010;28;20071;-67
2023/02/12 10:56:19;;;;;;;27.13;19.20;;;;;;;8.50;91.82;103846.22;5115604;28;20123;-67
2023/02/12 10:58:54;;;;;;;24.48;19.17;;;;;;;8.51;92.24;103847.94;5097239;28;20044;-66
2023/02/12 11:01:28;;;;;;;23.58;18.45;;;;;;;8.53;92.19;103848.56;5107466;28;20047;-66
2023/02/12 11:03:58;;;;;;;24.85;19.23;;;;;;;8.55;92.50;103853.00;5095008;28;20064;-66
2023/02/12 11:06:30;;;;;;;22.20;18.70;;;;;;;8.56;92.82;103843.81;5094864;28;20047;-67
2023/02/12 11:08:59;;;;;;;24.15;19.42;;;;;;;8.57;93.10;103842.81;5095291;28;20094;-67
2023/02/12 11:11:30;;;;;;;25.23;19.75;;;;;;;8.57;92.88;103840.09;5096372;28;20054;-67
2023/02/12 11:14:04;;;;;;;25.02;19.80;;;;;;;8.58;92.84;103837.16;5094964;28;20131;-67
2023/02/12 11:16:37;;;;;;;25.05;19.92;;;;;;;8.59;92.34;103843.47;5094059;28;20051;-66
2023/02/12 11:19:07;;;;;;;25.10;19.73;;;;;;;8.59;93.31;103843.47;5077165;28;20490;-66
2023/02/12 11:21:35;;;;;;;24.65;18.83;;;;;;;8.58;92.59;103837.16;5103539;28;20077;-66
2023/02/12 11:24:25;;;;;;;26.38;20.60;;;;;;;8.59;93.02;103835.31;5119239;28;20050;-66
2023/02/12 11:27:24;;;;;;;27.13;19.77;;;;;;;8.59;91.90;103841.59;5129347;28;20043;-66
2023/02/12 11:30:18;;;;;;;25.83;18.60;;;;;;;8.58;92.22;103837.16;5120353;28;20480;-66
2023/02/12 11:32:48;;;;;;;26.10;19.52;;;;;;;8.59;92.03;103836.16;5118521;28;20035;-66
2023/02/12 11:35:24;;;;;;;26.30;19.02;;;;;;;8.60;92.22;103829.69;5126519;28;20044;-66
2023/02/12 11:37:54;;;;;;;22.87;17.80;;;;;;;8.60;91.39;103823.41;5119979;28;20130;-66
2023/02/12 11:40:28;;;;;;;24.67;18.83;;;;;;;8.60;91.32;103820.69;5111885;28;20047;-66
2023/02/12 11:43:01;;;;;;;23.73;18.83;;;;;;;8.61;92.00;103820.53;5092703;28;20117;-66
2023/02/12 11:45:46;;;;;;;24.00;17.75;;;;;;;8.62;91.64;103815.94;5092457;28;20056;-65